createdAt,value
2023-04-30T00:01:05.100Z,62.43
2023-04-30T00:03:08.009Z,62.58
2023-04-30T00:05:10.837Z,62.84
2023-04-30T00:07:14.305Z,62.46
2023-04-30T00:09:17.376Z,62.01
2023-04-30T00:11:21.450Z,62.21
2023-04-30T00:13:24.208Z,62.43
2023-04-30T00:15:27.095Z,63.08
2023-04-30T00:17:30.076Z,63.22
2023-04-30T00:19:33.227Z,63.09
2023-04-30T00:21:36.295Z,63.51
2023-04-30T00:23:39.068Z,63.63
2023-04-30T00:25:41.852Z,64.05
2023-04-30T00:27:45.988Z,64.30
2023-04-30T00:29:48.888Z,63.38
2023-04-30T00:31:51.685Z,62.99
2023-04-30T00:33:54.460Z,63.50
2023-04-30T00:35:57.421Z,63.25
2023-04-30T00:38:00.607Z,63.03
2023-04-30T00:40:03.514Z,62.37
2023-04-30T00:42:06.486Z,62.64
2023-04-30T00:44:10.830Z,62.19
2023-04-30T00:46:13.702Z,62.50
2023-04-30T00:48:17.251Z,62.31
2023-04-30T00:50:19.990Z,62.67
2023-04-30T00:52:22.846Z,62.65
2023-04-30T00:54:26.956Z,62.59
2023-04-30T00:56:30.774Z,62.30
2023-04-30T00:58:34.090Z,62.55
2023-04-30T01:00:38.263Z,62.33
2023-04-30T01:02:41.574Z,62.63
2023-04-30T01:04:44.840Z,62.92
2023-04-30T01:06:47.705Z,63.22
2023-04-30T01:08:50.922Z,62.94
2023-04-30T01:11:05.886Z,62.74
2023-04-30T01:13:14.589Z,63.11
2023-04-30T01:15:23.760Z,63.01
2023-04-30T01:17:35.033Z,63.79
2023-04-30T01:19:43.264Z,65.01
2023-04-30T01:21:46.872Z,64.65
2023-04-30T01:24:04.163Z,63.81
2023-04-30T01:26:15.191Z,63.19
2023-04-30T01:28:20.190Z,62.93
2023-04-30T01:30:25.209Z,62.92
2023-04-30T01:32:28.714Z,62.73
2023-04-30T01:34:31.605Z,62.53
2023-04-30T01:36:52.019Z,62.60
2023-04-30T01:39:11.270Z,62.55
2023-04-30T01:41:21.289Z,62.50
2023-04-30T01:43:35.269Z,62.47
2023-04-30T01:45:53.285Z,62.58
2023-04-30T01:48:04.206Z,62.66
2023-04-30T01:50:34.920Z,63.21
2023-04-30T01:52:47.218Z,63.04
2023-04-30T01:54:57.027Z,62.68
2023-04-30T01:57:04.872Z,62.63
2023-04-30T01:59:10.117Z,63.02
2023-04-30T02:01:27.510Z,63.12
2023-04-30T02:03:30.512Z,63.32
2023-04-30T02:05:33.764Z,62.99
2023-04-30T02:07:40.924Z,62.85
2023-04-30T02:09:44.232Z,63.25
2023-04-30T02:11:47.068Z,63.28
2023-04-30T02:13:49.889Z,63.36
2023-04-30T02:15:54.014Z,63.70
2023-04-30T02:17:56.963Z,62.77
2023-04-30T02:19:59.867Z,63.06
2023-04-30T02:22:02.761Z,63.17
2023-04-30T02:24:06.154Z,62.63
2023-04-30T02:26:08.900Z,62.69
2023-04-30T02:28:11.719Z,62.74
2023-04-30T02:30:14.535Z,62.72
2023-04-30T02:32:19.085Z,62.72
2023-04-30T02:34:22.132Z,62.59
2023-04-30T02:36:24.923Z,62.85
2023-04-30T02:38:27.973Z,62.93
2023-04-30T02:40:30.753Z,62.82
2023-04-30T02:42:33.626Z,62.78
2023-04-30T02:44:36.795Z,62.90
2023-04-30T02:46:40.480Z,62.80
2023-04-30T02:48:44.714Z,62.76
2023-04-30T02:50:47.530Z,62.71
2023-04-30T02:52:50.448Z,62.79
2023-04-30T02:54:53.307Z,62.33
2023-04-30T02:56:57.310Z,62.57
2023-04-30T02:59:00.091Z,62.48
2023-04-30T03:01:02.945Z,62.70
2023-04-30T03:03:05.859Z,62.46
2023-04-30T03:05:11.290Z,62.42
2023-04-30T03:07:14.141Z,62.88
2023-04-30T03:09:16.963Z,62.22
2023-04-30T03:11:19.821Z,62.36
2023-04-30T03:13:22.615Z,62.54
2023-04-30T03:15:25.577Z,62.90
2023-04-30T03:17:28.470Z,62.78
2023-04-30T03:19:31.787Z,62.59
2023-04-30T03:21:35.984Z,62.92
2023-04-30T03:23:38.973Z,62.49
2023-04-30T03:25:41.763Z,62.34
2023-04-30T03:27:44.556Z,61.60
2023-04-30T03:29:47.377Z,62.30
2023-04-30T03:31:50.376Z,62.29
2023-04-30T03:33:53.268Z,62.44
2023-04-30T03:35:56.101Z,62.52
2023-04-30T03:38:00.461Z,62.19
2023-04-30T03:40:03.559Z,61.97
2023-04-30T03:42:06.704Z,62.51
2023-04-30T03:44:15.448Z,62.27
2023-04-30T03:46:18.388Z,61.88
2023-04-30T03:48:21.342Z,62.26
2023-04-30T03:50:24.274Z,62.63
2023-04-30T03:52:27.339Z,62.44
2023-04-30T03:54:31.464Z,62.20
2023-04-30T03:56:34.616Z,62.56
2023-04-30T03:58:37.454Z,62.79
2023-04-30T04:00:41.509Z,62.91
2023-04-30T04:02:44.733Z,62.48
2023-04-30T04:04:48.293Z,62.91
2023-04-30T04:06:51.254Z,62.50
2023-04-30T04:08:54.121Z,62.47
2023-04-30T04:10:59.832Z,63.00
2023-04-30T04:13:02.641Z,63.00
2023-04-30T04:15:06.346Z,62.39
2023-04-30T04:17:09.311Z,62.78
2023-04-30T04:19:13.213Z,62.41
2023-04-30T04:21:16.168Z,62.38
2023-04-30T04:23:18.969Z,63.07
2023-04-30T04:25:25.059Z,63.01
2023-04-30T04:27:29.276Z,63.20
2023-04-30T04:29:32.243Z,63.25
2023-04-30T04:31:35.321Z,62.13
2023-04-30T04:33:38.611Z,63.02
2023-04-30T04:35:41.441Z,63.44
2023-04-30T04:37:44.339Z,63.23
2023-04-30T04:39:47.186Z,63.19
2023-04-30T04:41:50.123Z,63.52
2023-04-30T04:43:54.337Z,63.09
2023-04-30T04:45:57.275Z,63.14
2023-04-30T04:48:00.333Z,63.04
2023-04-30T04:50:03.649Z,62.75
2023-04-30T04:52:06.615Z,62.90
2023-04-30T04:54:09.394Z,62.74
2023-04-30T04:56:12.880Z,61.85
2023-04-30T04:58:15.700Z,62.27
2023-04-30T05:00:22.065Z,62.57
2023-04-30T05:02:25.148Z,62.89
2023-04-30T05:04:28.227Z,62.24
2023-04-30T05:06:32.211Z,61.99
2023-04-30T05:08:36.375Z,62.47
2023-04-30T05:10:39.418Z,61.89
2023-04-30T05:12:42.160Z,62.65
2023-04-30T05:14:45.043Z,62.12
2023-04-30T05:16:49.764Z,62.83
2023-04-30T05:18:52.358Z,62.99
2023-04-30T05:20:55.185Z,62.18
2023-04-30T05:22:58.021Z,62.44
2023-04-30T05:25:00.798Z,61.73
2023-04-30T05:27:05.453Z,61.90
2023-04-30T05:29:08.109Z,61.93
2023-04-30T05:31:10.981Z,61.30
2023-04-30T05:33:15.233Z,61.46
2023-04-30T05:35:18.181Z,61.95
2023-04-30T05:37:22.568Z,61.66
2023-04-30T05:39:25.530Z,61.60
2023-04-30T05:41:28.367Z,61.60
2023-04-30T05:43:31.228Z,61.46
2023-04-30T05:45:34.659Z,60.61
2023-04-30T05:47:37.664Z,61.31
2023-04-30T05:49:41.856Z,61.91
2023-04-30T05:51:44.678Z,62.37
2023-04-30T05:53:47.500Z,61.78
2023-04-30T05:55:50.579Z,61.91
2023-04-30T05:57:53.439Z,61.85
2023-04-30T05:59:56.497Z,62.16
2023-04-30T06:01:59.503Z,61.84
2023-04-30T06:04:04.753Z,61.38
2023-04-30T06:06:09.005Z,61.74
2023-04-30T06:08:11.822Z,60.57
2023-04-30T06:10:14.826Z,60.81
2023-04-30T06:12:17.633Z,61.11
2023-04-30T06:14:22.709Z,59.80
2023-04-30T06:16:25.786Z,60.06
2023-04-30T06:18:28.613Z,60.51
2023-04-30T06:20:31.456Z,59.76
2023-04-30T06:22:35.740Z,59.35
2023-04-30T06:24:38.603Z,60.37
2023-04-30T06:26:41.451Z,59.25
2023-04-30T06:28:44.267Z,59.06
2023-04-30T06:30:47.102Z,59.59
2023-04-30T06:32:50.045Z,59.87
2023-04-30T06:34:52.857Z,59.95
2023-04-30T06:36:55.629Z,58.82
2023-04-30T06:38:59.739Z,60.21
2023-04-30T06:41:02.582Z,59.42
2023-04-30T06:43:05.432Z,59.10
2023-04-30T06:45:09.494Z,59.65
2023-04-30T06:47:12.446Z,59.85
2023-04-30T06:49:15.219Z,59.55
2023-04-30T06:51:18.044Z,60.02
2023-04-30T06:53:20.816Z,56.64
2023-04-30T06:55:25.270Z,57.53
2023-04-30T06:57:28.192Z,56.57
2023-04-30T06:59:31.159Z,56.29
2023-04-30T07:01:34.047Z,56.48
2023-04-30T07:03:37.190Z,57.59
2023-04-30T07:05:40.152Z,56.69
2023-04-30T07:07:43.027Z,57.14
2023-04-30T07:09:45.853Z,57.15
2023-04-30T07:11:50.199Z,56.94
2023-04-30T07:13:53.497Z,56.14
2023-04-30T07:15:56.537Z,55.69
2023-04-30T07:17:59.471Z,55.79
2023-04-30T07:20:02.621Z,56.07
2023-04-30T07:22:05.449Z,55.19
2023-04-30T07:24:08.301Z,55.71
2023-04-30T07:26:11.139Z,55.93
2023-04-30T07:28:15.424Z,55.93
2023-04-30T07:30:18.302Z,53.71
2023-04-30T07:32:21.232Z,53.92
2023-04-30T07:34:24.412Z,53.98
2023-04-30T07:36:28.016Z,54.17
2023-04-30T07:38:30.816Z,53.18
2023-04-30T07:40:36.213Z,52.61
2023-04-30T07:42:39.539Z,52.71
2023-04-30T07:44:43.857Z,52.70
2023-04-30T07:46:46.717Z,52.74
2023-04-30T07:48:49.594Z,52.32
2023-04-30T07:50:52.999Z,53.77
2023-04-30T07:52:55.972Z,53.32
2023-04-30T07:54:58.785Z,51.41
2023-04-30T07:57:01.873Z,52.10
2023-04-30T07:59:04.706Z,51.61
2023-04-30T08:01:08.783Z,48.81
2023-04-30T08:03:12.303Z,51.08
2023-04-30T08:05:15.324Z,49.35
2023-04-30T08:07:18.244Z,49.89
2023-04-30T08:09:21.224Z,50.05
2023-04-30T08:11:24.093Z,48.04
2023-04-30T08:13:27.077Z,47.75
2023-04-30T08:15:30.678Z,47.49
2023-04-30T08:17:36.004Z,47.01
2023-04-30T08:19:38.807Z,48.74
2023-04-30T08:21:41.806Z,48.84
2023-04-30T08:23:44.680Z,48.19
2023-04-30T08:25:47.436Z,48.08
2023-04-30T08:27:50.379Z,48.69
2023-04-30T08:29:53.303Z,48.37
2023-04-30T08:31:56.689Z,48.15
2023-04-30T08:34:00.838Z,48.46
2023-04-30T08:36:03.546Z,48.58
2023-04-30T08:38:06.403Z,48.84
2023-04-30T08:40:12.019Z,48.93
2023-04-30T08:42:16.276Z,47.08
2023-04-30T08:44:22.916Z,47.51
2023-04-30T08:46:26.816Z,48.52
2023-04-30T08:48:31.513Z,47.78
2023-04-30T08:50:35.993Z,47.76
2023-04-30T08:52:41.240Z,47.32
2023-04-30T08:54:45.738Z,47.36
2023-04-30T08:56:48.635Z,46.61
2023-04-30T08:58:51.437Z,47.22
2023-04-30T09:00:54.212Z,47.16
2023-04-30T09:02:57.228Z,47.37
2023-04-30T09:05:00.104Z,46.60
2023-04-30T09:07:05.598Z,45.47
2023-04-30T09:09:11.790Z,44.80
2023-04-30T09:11:25.736Z,46.34
2023-04-30T09:13:41.975Z,46.73
2023-04-30T09:15:45.849Z,44.71
2023-04-30T09:17:48.803Z,45.68
2023-04-30T09:19:51.904Z,45.56
2023-04-30T09:21:55.496Z,44.54
2023-04-30T09:24:01.580Z,44.65
2023-04-30T09:26:04.543Z,43.55
2023-04-30T09:28:11.736Z,44.29
2023-04-30T09:30:32.695Z,45.87
2023-04-30T09:32:35.557Z,45.51
2023-04-30T09:34:39.713Z,43.20
2023-04-30T09:36:54.728Z,43.12
2023-04-30T09:39:08.990Z,43.13
2023-04-30T09:41:23.547Z,43.33
2023-04-30T09:43:26.567Z,43.75
2023-04-30T09:45:40.813Z,43.43
2023-04-30T09:47:43.664Z,44.15
2023-04-30T09:49:51.589Z,43.51
2023-04-30T09:51:57.931Z,43.19
2023-04-30T09:54:04.210Z,43.87
2023-04-30T09:56:08.732Z,43.72
2023-04-30T09:58:12.460Z,42.92
2023-04-30T10:00:17.851Z,42.61
2023-04-30T10:02:23.376Z,42.19
2023-04-30T10:04:28.786Z,43.46
2023-04-30T10:06:35.460Z,44.31
2023-04-30T10:08:42.244Z,42.35
2023-04-30T10:10:51.443Z,42.57
2023-04-30T10:12:59.350Z,42.33
2023-04-30T10:15:09.280Z,43.89
2023-04-30T10:17:17.270Z,43.99
2023-04-30T10:19:23.734Z,41.91
2023-04-30T10:21:28.949Z,42.33
2023-04-30T10:23:31.895Z,42.17
2023-04-30T10:25:35.270Z,42.52
2023-04-30T10:27:40.038Z,42.81
2023-04-30T10:29:43.748Z,43.57
2023-04-30T10:31:48.663Z,43.21
2023-04-30T10:34:02.178Z,43.57
2023-04-30T10:36:08.941Z,43.41
2023-04-30T10:38:19.620Z,41.97
2023-04-30T10:40:22.412Z,42.66
2023-04-30T10:42:25.414Z,44.30
2023-04-30T10:44:29.871Z,43.08
2023-04-30T10:46:35.954Z,42.94
2023-04-30T10:48:38.853Z,43.12
2023-04-30T10:50:45.706Z,42.39
2023-04-30T10:52:49.164Z,41.94
2023-04-30T10:54:52.000Z,42.04
2023-04-30T10:56:56.339Z,42.14
2023-04-30T10:59:03.428Z,42.34
2023-04-30T11:01:12.345Z,42.76
2023-04-30T11:03:15.394Z,43.40
2023-04-30T11:05:19.842Z,41.28
2023-04-30T11:07:28.552Z,42.63
2023-04-30T11:09:40.504Z,41.66
2023-04-30T11:11:45.376Z,41.51
2023-04-30T11:13:49.834Z,39.93
2023-04-30T11:15:52.711Z,40.47
2023-04-30T11:17:59.790Z,39.84
2023-04-30T11:20:03.456Z,39.74
2023-04-30T11:22:20.393Z,40.09
2023-04-30T11:24:23.393Z,39.84
2023-04-30T11:26:27.420Z,40.54
2023-04-30T11:28:31.024Z,40.75
2023-04-30T11:30:35.797Z,40.99
2023-04-30T11:32:39.685Z,41.13
2023-04-30T11:34:45.698Z,41.02
2023-04-30T11:36:49.277Z,42.12
2023-04-30T11:38:54.596Z,41.75
2023-04-30T11:40:58.315Z,40.79
2023-04-30T11:43:01.130Z,39.66
2023-04-30T11:45:05.681Z,39.72
2023-04-30T11:47:08.667Z,40.19
2023-04-30T11:49:11.643Z,40.67
2023-04-30T11:51:20.198Z,39.69
2023-04-30T11:53:28.171Z,39.48
2023-04-30T11:55:31.002Z,39.45
2023-04-30T11:57:36.721Z,40.93
2023-04-30T11:59:43.951Z,39.40
2023-04-30T12:01:47.104Z,40.70
2023-04-30T12:03:53.270Z,40.57
2023-04-30T12:05:56.502Z,41.08
2023-04-30T12:08:04.279Z,41.37
2023-04-30T12:10:08.528Z,41.00
2023-04-30T12:12:11.329Z,41.72
2023-04-30T12:14:15.174Z,43.16
2023-04-30T12:16:17.998Z,42.69
2023-04-30T12:18:20.820Z,40.67
2023-04-30T12:20:26.389Z,41.55
2023-04-30T12:22:30.022Z,42.28
2023-04-30T12:24:34.220Z,42.41
2023-04-30T12:26:38.756Z,40.05
2023-04-30T12:28:41.564Z,40.36
2023-04-30T12:30:44.951Z,40.22
2023-04-30T12:32:51.341Z,39.84
2023-04-30T12:34:59.135Z,41.34
2023-04-30T12:37:03.105Z,41.05
2023-04-30T12:39:10.626Z,41.93
2023-04-30T12:41:17.338Z,41.43
2023-04-30T12:43:20.256Z,39.75
2023-04-30T12:45:54.194Z,39.29
2023-04-30T12:47:57.384Z,38.93
2023-04-30T12:50:00.292Z,38.11
2023-04-30T12:52:07.425Z,38.26
2023-04-30T12:54:10.569Z,37.70
2023-04-30T12:56:16.884Z,37.46
2023-04-30T12:58:23.683Z,39.12
2023-04-30T13:00:26.685Z,39.71
2023-04-30T13:02:32.041Z,39.28
2023-04-30T13:04:35.964Z,40.36
2023-04-30T13:06:39.398Z,37.91
2023-04-30T13:08:57.140Z,36.77
2023-04-30T13:11:01.634Z,37.07
2023-04-30T13:13:05.735Z,38.08
2023-04-30T13:15:09.713Z,38.69
2023-04-30T13:17:13.905Z,40.06
2023-04-30T13:19:16.864Z,40.34
2023-04-30T13:21:20.580Z,38.88
2023-04-30T13:23:23.429Z,39.50
2023-04-30T13:25:26.823Z,39.59
2023-04-30T13:27:29.747Z,40.30
2023-04-30T13:29:33.862Z,38.24
2023-04-30T13:31:37.077Z,38.80
2023-04-30T13:33:39.983Z,38.02
2023-04-30T13:35:42.842Z,37.79
2023-04-30T13:37:47.838Z,36.40
2023-04-30T13:39:50.784Z,36.56
2023-04-30T13:41:53.606Z,36.91
2023-04-30T13:43:56.393Z,37.61
2023-04-30T13:46:00.570Z,36.12
2023-04-30T13:48:03.538Z,36.68
2023-04-30T13:50:07.989Z,36.93
2023-04-30T13:52:10.806Z,37.25
2023-04-30T13:54:13.612Z,37.08
2023-04-30T13:56:16.418Z,36.78
2023-04-30T13:58:19.274Z,37.12
2023-04-30T14:00:22.585Z,37.01
2023-04-30T14:02:27.283Z,38.73
2023-04-30T14:04:30.931Z,39.59
2023-04-30T14:06:33.745Z,37.36
2023-04-30T14:08:36.577Z,35.76
2023-04-30T14:10:39.367Z,35.23
2023-04-30T14:12:42.188Z,35.78
2023-04-30T14:14:45.029Z,35.88
2023-04-30T14:16:47.862Z,37.05
2023-04-30T14:18:52.023Z,37.65
2023-04-30T14:20:54.791Z,38.50
2023-04-30T14:22:57.595Z,36.67
2023-04-30T14:25:00.490Z,37.35
2023-04-30T14:27:03.860Z,37.27
2023-04-30T14:29:06.631Z,36.08
2023-04-30T14:31:10.426Z,35.43
2023-04-30T14:33:13.843Z,35.39
2023-04-30T14:35:18.234Z,34.81
2023-04-30T14:37:21.151Z,34.85
2023-04-30T14:39:24.190Z,36.33
2023-04-30T14:41:27.093Z,39.42
2023-04-30T14:43:29.992Z,37.52
2023-04-30T14:45:34.297Z,35.46
2023-04-30T14:47:37.415Z,34.97
2023-04-30T14:49:40.503Z,35.84
2023-04-30T14:51:44.739Z,36.08
2023-04-30T14:53:47.542Z,36.65
2023-04-30T14:55:51.008Z,35.98
2023-04-30T14:57:53.819Z,36.31
2023-04-30T14:59:57.893Z,35.71
2023-04-30T15:02:00.983Z,35.59
2023-04-30T15:04:03.746Z,36.49
2023-04-30T15:06:06.943Z,36.89
2023-04-30T15:08:11.137Z,37.56
2023-04-30T15:10:14.059Z,37.89
2023-04-30T15:12:17.115Z,37.43
2023-04-30T15:14:19.996Z,35.88
2023-04-30T15:16:23.144Z,35.88
2023-04-30T15:18:26.462Z,35.78
2023-04-30T15:20:29.199Z,34.47
2023-04-30T15:22:32.212Z,35.86
2023-04-30T15:24:36.732Z,35.73
2023-04-30T15:26:39.457Z,35.39
2023-04-30T15:28:42.504Z,37.42
2023-04-30T15:30:45.470Z,38.00
2023-04-30T15:32:50.089Z,37.57
2023-04-30T15:34:53.236Z,38.11
2023-04-30T15:36:58.781Z,35.25
2023-04-30T15:39:02.255Z,36.11
2023-04-30T15:41:06.470Z,36.40
2023-04-30T15:43:09.292Z,34.89
2023-04-30T15:45:12.251Z,34.44
2023-04-30T15:47:15.171Z,34.40
2023-04-30T15:49:17.938Z,34.96
2023-04-30T15:51:20.769Z,35.18
2023-04-30T15:53:23.784Z,35.61
2023-04-30T15:55:27.156Z,36.55
2023-04-30T15:57:31.307Z,34.59
2023-04-30T15:59:34.698Z,33.49
2023-04-30T16:01:37.737Z,33.69
2023-04-30T16:03:40.923Z,35.29
2023-04-30T16:05:43.856Z,37.19
2023-04-30T16:07:46.906Z,36.99
2023-04-30T16:09:49.786Z,35.87
2023-04-30T16:11:52.675Z,35.59
2023-04-30T16:13:56.930Z,36.59
2023-04-30T16:15:59.840Z,35.34
2023-04-30T16:18:02.991Z,36.32
2023-04-30T16:20:07.148Z,36.19
2023-04-30T16:22:09.955Z,35.96
2023-04-30T16:24:13.040Z,33.57
2023-04-30T16:26:15.834Z,33.94
2023-04-30T16:28:18.698Z,34.07
2023-04-30T16:30:22.945Z,35.17
2023-04-30T16:32:27.323Z,34.55
2023-04-30T16:34:30.366Z,34.55
2023-04-30T16:36:34.150Z,34.79
2023-04-30T16:38:37.116Z,34.26
2023-04-30T16:40:39.964Z,35.35
2023-04-30T16:42:43.811Z,35.07
2023-04-30T16:44:47.010Z,35.05
2023-04-30T16:46:51.199Z,35.35
2023-04-30T16:48:54.385Z,34.64
2023-04-30T16:50:57.254Z,34.35
2023-04-30T16:53:00.126Z,35.21
2023-04-30T16:55:03.319Z,35.78
2023-04-30T16:57:06.995Z,36.60
2023-04-30T16:59:09.774Z,35.83
2023-04-30T17:01:12.788Z,36.01
2023-04-30T17:03:17.175Z,35.79
2023-04-30T17:05:26.886Z,37.15
2023-04-30T17:07:29.689Z,35.67
2023-04-30T17:09:36.765Z,35.70
2023-04-30T17:11:39.547Z,35.86
2023-04-30T17:13:43.721Z,35.40
2023-04-30T17:15:46.620Z,35.92
2023-04-30T17:17:49.619Z,36.70
2023-04-30T17:19:54.150Z,36.29
2023-04-30T17:21:57.096Z,35.79
2023-04-30T17:23:59.905Z,34.89
2023-04-30T17:26:03.850Z,35.10
2023-04-30T17:28:06.709Z,35.83
2023-04-30T17:30:10.250Z,36.49
2023-04-30T17:32:17.277Z,36.25
2023-04-30T17:34:20.580Z,35.34
2023-04-30T17:36:25.456Z,36.04
2023-04-30T17:38:28.315Z,35.93
2023-04-30T17:40:31.671Z,35.69
2023-04-30T17:42:35.231Z,35.78
2023-04-30T17:44:38.009Z,35.61
2023-04-30T17:46:41.201Z,36.95
2023-04-30T17:48:44.317Z,36.65
2023-04-30T17:50:47.130Z,37.43
2023-04-30T17:52:51.346Z,37.44
2023-04-30T17:54:54.189Z,38.79
2023-04-30T17:56:56.990Z,38.35
2023-04-30T17:59:00.201Z,38.85
2023-04-30T18:01:03.556Z,38.63
2023-04-30T18:03:06.953Z,38.91
2023-04-30T18:05:11.626Z,38.41
2023-04-30T18:07:14.451Z,38.95
2023-04-30T18:09:19.413Z,39.12
2023-04-30T18:11:22.222Z,39.95
2023-04-30T18:13:25.165Z,40.42
2023-04-30T18:15:28.081Z,40.45
2023-04-30T18:17:30.975Z,40.19
2023-04-30T18:19:33.772Z,41.07
2023-04-30T18:21:36.694Z,41.35
2023-04-30T18:23:39.512Z,40.98
2023-04-30T18:25:43.743Z,40.71
2023-04-30T18:27:46.539Z,40.74
2023-04-30T18:29:50.199Z,40.76
2023-04-30T18:31:53.056Z,40.57
2023-04-30T18:33:56.445Z,40.28
2023-04-30T18:36:05.398Z,40.62
2023-04-30T18:38:08.984Z,40.79
2023-04-30T18:40:12.236Z,41.02
2023-04-30T18:42:16.558Z,41.84
2023-04-30T18:44:20.570Z,41.89
2023-04-30T18:46:23.896Z,42.19
2023-04-30T18:48:26.920Z,42.51
2023-04-30T18:50:29.705Z,42.63
2023-04-30T18:52:32.540Z,43.20
2023-04-30T18:54:36.117Z,43.40
2023-04-30T18:56:38.886Z,43.13
2023-04-30T18:58:46.672Z,43.14
2023-04-30T19:01:08.654Z,43.47
2023-04-30T19:03:30.882Z,43.28
2023-04-30T19:05:55.103Z,43.54
2023-04-30T19:08:16.704Z,43.81
2023-04-30T19:10:37.662Z,44.02
2023-04-30T19:12:59.057Z,43.80
2023-04-30T19:15:21.898Z,43.76
2023-04-30T19:17:43.478Z,44.17
2023-04-30T19:20:05.796Z,44.36
2023-04-30T19:22:27.446Z,44.85
2023-04-30T19:24:48.597Z,44.78
2023-04-30T19:27:10.857Z,44.66
2023-04-30T19:29:32.515Z,44.79
2023-04-30T19:31:56.964Z,45.61
2023-04-30T19:34:19.602Z,46.08
2023-04-30T19:36:41.851Z,46.43
2023-04-30T19:39:06.082Z,47.02
2023-04-30T19:41:27.667Z,47.21
2023-04-30T19:43:49.093Z,47.57
2023-04-30T19:46:10.310Z,47.48
2023-04-30T19:48:33.270Z,47.80
2023-04-30T19:50:54.870Z,47.88
2023-04-30T19:53:18.278Z,47.87
2023-04-30T19:55:39.737Z,48.02
2023-04-30T19:58:00.784Z,47.57
2023-04-30T20:00:23.160Z,47.41
2023-04-30T20:02:44.675Z,47.86
2023-04-30T20:05:10.123Z,48.16
2023-04-30T20:07:31.365Z,48.36
2023-04-30T20:09:53.048Z,49.16
2023-04-30T20:12:14.451Z,50.41
2023-04-30T20:14:35.762Z,51.26
2023-04-30T20:16:57.413Z,51.10
2023-04-30T20:19:18.600Z,51.75
2023-04-30T20:21:41.198Z,52.28
2023-04-30T20:24:04.129Z,53.42
2023-04-30T20:26:25.837Z,53.81
2023-04-30T20:28:48.266Z,54.69
2023-04-30T20:31:10.050Z,56.42
2023-04-30T20:33:31.446Z,56.42
2023-04-30T20:35:53.206Z,57.33
2023-04-30T20:38:18.909Z,57.38
2023-04-30T20:40:41.457Z,57.65
2023-04-30T20:43:02.962Z,57.30
2023-04-30T20:45:24.388Z,57.28
2023-04-30T20:47:46.588Z,57.15
2023-04-30T20:50:08.922Z,56.06
2023-04-30T20:52:30.033Z,56.02
2023-04-30T20:54:53.133Z,55.91
2023-04-30T20:57:14.320Z,55.29
2023-04-30T20:59:36.451Z,54.94
2023-04-30T21:01:58.781Z,54.01
2023-04-30T21:04:20.409Z,53.66
2023-04-30T21:06:42.030Z,53.50
2023-04-30T21:09:03.882Z,53.50
2023-04-30T21:11:26.734Z,53.34
2023-04-30T21:13:50.756Z,53.60
2023-04-30T21:16:12.695Z,53.45
2023-04-30T21:18:34.111Z,53.46
2023-04-30T21:20:56.391Z,53.02
2023-04-30T21:23:18.464Z,52.49
2023-04-30T21:25:39.915Z,52.01
2023-04-30T21:28:02.956Z,51.95
2023-04-30T21:30:26.298Z,51.95
2023-04-30T21:32:47.932Z,52.01
2023-04-30T21:35:09.713Z,52.41
2023-04-30T21:37:31.109Z,52.30
2023-04-30T21:39:52.297Z,52.69
2023-04-30T21:42:13.810Z,52.19
2023-04-30T21:44:36.240Z,51.42
2023-04-30T21:46:57.708Z,52.16
2023-04-30T21:49:19.014Z,52.21
2023-04-30T21:51:40.842Z,52.57
2023-04-30T21:54:02.505Z,52.23
2023-04-30T21:56:23.714Z,52.26
2023-04-30T21:58:44.728Z,51.89
2023-04-30T22:01:07.959Z,52.69
2023-04-30T22:03:29.462Z,53.74
2023-04-30T22:05:50.678Z,53.84
2023-04-30T22:08:11.982Z,53.66
2023-04-30T22:10:33.030Z,52.71
2023-04-30T22:12:54.507Z,53.91
2023-04-30T22:15:16.056Z,53.49
2023-04-30T22:17:40.296Z,53.69
2023-04-30T22:20:01.465Z,53.50
2023-04-30T22:22:22.945Z,53.74
2023-04-30T22:24:44.651Z,53.39
2023-04-30T22:27:06.445Z,53.86
2023-04-30T22:29:27.605Z,54.05
2023-04-30T22:31:58.913Z,53.68
2023-04-30T22:34:23.260Z,54.74
2023-04-30T22:36:45.946Z,54.71
2023-04-30T22:39:07.743Z,54.57
2023-04-30T22:41:29.662Z,54.83
2023-04-30T22:43:51.395Z,54.86
2023-04-30T22:46:12.393Z,54.71
2023-04-30T22:48:34.237Z,55.48
2023-04-30T22:50:58.618Z,55.28
2023-04-30T22:53:20.028Z,55.23
2023-04-30T22:55:41.274Z,55.42
2023-04-30T22:58:02.950Z,55.77
2023-04-30T23:00:24.199Z,55.62
2023-04-30T23:02:45.541Z,55.26
2023-04-30T23:05:07.991Z,56.37
2023-04-30T23:07:30.683Z,56.14
2023-04-30T23:09:59.448Z,55.67
2023-04-30T23:12:20.798Z,55.42
2023-04-30T23:14:42.493Z,54.10
2023-04-30T23:17:04.928Z,53.83
2023-04-30T23:19:26.764Z,52.30
2023-04-30T23:21:48.235Z,52.83
2023-04-30T23:24:11.468Z,52.54
2023-04-30T23:26:32.617Z,52.21
2023-04-30T23:28:55.109Z,52.32
2023-04-30T23:31:17.964Z,51.88
2023-04-30T23:33:39.620Z,51.87
2023-04-30T23:36:01.493Z,51.69
2023-04-30T23:38:22.736Z,50.89
2023-04-30T23:40:45.383Z,52.52
2023-04-30T23:43:07.029Z,51.57
2023-04-30T23:45:28.210Z,51.33
2023-04-30T23:47:49.892Z,50.97
2023-04-30T23:50:12.411Z,51.41
2023-04-30T23:52:35.264Z,51.52
2023-04-30T23:54:57.293Z,51.23
2023-04-30T23:57:20.245Z,50.38
2023-04-30T23:59:42.481Z,51.71
